createdAt,value
2023-03-29T00:02:30.713Z,18.73
2023-03-29T00:05:04.592Z,13.05
2023-03-29T00:07:34.932Z,13.77
2023-03-29T00:10:04.860Z,17.85
2023-03-29T00:12:34.614Z,12.82
2023-03-29T00:15:04.349Z,10.52
2023-03-29T00:17:34.109Z,14.35
2023-03-29T00:20:10.473Z,10.63
2023-03-29T00:22:42.330Z,9.25
2023-03-29T00:25:12.827Z,8.98
2023-03-29T00:27:42.788Z,8.95
2023-03-29T00:30:13.088Z,12.52
2023-03-29T00:32:43.056Z,12.80
2023-03-29T00:35:15.633Z,12.07
2023-03-29T00:37:47.380Z,9.57
2023-03-29T00:40:17.508Z,9.23
2023-03-29T00:42:48.345Z,14.18
2023-03-29T00:45:21.935Z,22.02
2023-03-29T00:47:53.093Z,13.63
2023-03-29T00:50:30.027Z,9.48
2023-03-29T00:53:03.773Z,8.05
2023-03-29T00:55:36.659Z,7.88
2023-03-29T00:58:07.205Z,9.15
2023-03-29T01:00:40.172Z,3.78
2023-03-29T01:03:13.879Z,6.75
2023-03-29T01:05:47.900Z,5.43
2023-03-29T01:08:20.438Z,5.30
2023-03-29T01:10:52.313Z,3.75
2023-03-29T01:13:26.502Z,3.97
2023-03-29T01:15:57.293Z,3.43
2023-03-29T01:18:27.442Z,3.45
2023-03-29T01:21:15.377Z,3.50
2023-03-29T01:23:51.283Z,5.80
2023-03-29T01:26:25.673Z,4.10
2023-03-29T01:29:00.004Z,3.93
2023-03-29T01:31:31.735Z,7.47
2023-03-29T01:34:04.477Z,10.95
2023-03-29T01:36:37.373Z,9.52
2023-03-29T01:39:08.793Z,12.88
2023-03-29T01:41:42.718Z,10.20
2023-03-29T01:44:17.573Z,8.85
2023-03-29T01:46:48.801Z,8.55
2023-03-29T01:49:24.927Z,9.82
2023-03-29T01:51:56.591Z,9.02
2023-03-29T01:54:30.815Z,7.82
2023-03-29T01:57:01.285Z,8.38
2023-03-29T01:59:35.244Z,9.07
2023-03-29T02:02:08.425Z,7.43
2023-03-29T02:04:40.193Z,8.30
2023-03-29T02:07:11.694Z,6.95
2023-03-29T02:09:42.294Z,8.10
2023-03-29T02:12:13.229Z,6.68
2023-03-29T02:14:45.664Z,7.00
2023-03-29T02:17:19.291Z,5.85
2023-03-29T02:19:51.281Z,6.43
2023-03-29T02:22:24.914Z,4.67
2023-03-29T02:24:59.377Z,4.45
2023-03-29T02:27:30.234Z,5.32
2023-03-29T02:30:03.457Z,3.90
2023-03-29T02:32:37.083Z,4.50
2023-03-29T02:35:09.010Z,8.20
2023-03-29T02:37:41.222Z,8.25
2023-03-29T02:40:13.468Z,7.20
2023-03-29T02:42:44.282Z,7.75
2023-03-29T02:45:18.275Z,7.05
2023-03-29T02:47:49.563Z,7.03
2023-03-29T02:50:19.758Z,6.90
2023-03-29T02:52:55.007Z,9.45
2023-03-29T02:55:26.393Z,8.30
2023-03-29T02:57:56.299Z,8.30
2023-03-29T03:00:28.925Z,8.07
2023-03-29T03:03:01.979Z,6.78
2023-03-29T03:05:31.922Z,6.75
2023-03-29T03:08:01.671Z,9.85
2023-03-29T03:10:32.893Z,8.38
2023-03-29T03:13:02.606Z,8.55
2023-03-29T03:15:35.998Z,8.00
2023-03-29T03:18:06.326Z,9.32
2023-03-29T03:20:36.050Z,6.00
2023-03-29T03:23:06.101Z,5.93
2023-03-29T03:25:37.320Z,9.45
2023-03-29T03:28:07.790Z,10.13
2023-03-29T03:30:40.130Z,10.93
2023-03-29T03:33:29.569Z,8.38
2023-03-29T03:36:26.170Z,8.20
2023-03-29T03:38:59.581Z,7.75
2023-03-29T03:41:29.396Z,6.75
2023-03-29T03:43:59.296Z,8.55
2023-03-29T03:46:31.892Z,6.20
2023-03-29T03:49:02.662Z,6.90
2023-03-29T03:51:35.543Z,7.20
2023-03-29T03:54:05.814Z,9.05
2023-03-29T03:56:59.210Z,7.80
2023-03-29T03:59:39.129Z,7.80
2023-03-29T04:02:15.854Z,8.65
2023-03-29T04:04:47.895Z,6.95
2023-03-29T04:07:21.167Z,7.32
2023-03-29T04:10:10.067Z,7.57
2023-03-29T04:12:48.816Z,10.50
2023-03-29T04:15:20.432Z,8.90
2023-03-29T04:18:04.569Z,15.88
2023-03-29T04:20:38.294Z,12.10
2023-03-29T04:23:08.190Z,8.60
2023-03-29T04:25:39.259Z,14.45
2023-03-29T04:28:41.131Z,8.35
2023-03-29T04:31:24.698Z,11.43
2023-03-29T04:34:20.107Z,15.05
2023-03-29T04:36:51.739Z,10.30
2023-03-29T04:39:34.253Z,10.27
2023-03-29T04:42:07.821Z,27.05
2023-03-29T04:44:38.251Z,12.25
2023-03-29T04:47:12.394Z,10.48
2023-03-29T04:50:01.844Z,9.50
2023-03-29T04:52:45.762Z,9.30
2023-03-29T04:55:16.057Z,11.93
2023-03-29T04:58:03.048Z,9.98
2023-03-29T05:00:38.141Z,12.95
2023-03-29T05:03:07.898Z,12.48
2023-03-29T05:05:44.337Z,12.93
2023-03-29T05:08:14.131Z,13.35
2023-03-29T05:11:11.102Z,11.10
2023-03-29T05:13:41.333Z,9.70
2023-03-29T05:16:11.732Z,13.82
2023-03-29T05:18:42.078Z,17.55
2023-03-29T05:21:15.966Z,17.35
2023-03-29T05:23:48.211Z,16.73
2023-03-29T05:26:30.726Z,18.17
2023-03-29T05:29:00.719Z,16.80
2023-03-29T05:31:30.622Z,12.57
2023-03-29T05:34:00.468Z,16.95
2023-03-29T05:36:34.647Z,15.68
2023-03-29T05:39:05.276Z,13.93
2023-03-29T05:41:35.353Z,13.05
2023-03-29T05:44:24.102Z,6.53
2023-03-29T05:46:59.339Z,11.63
2023-03-29T05:49:29.273Z,8.43
2023-03-29T05:52:10.125Z,8.87
2023-03-29T05:54:41.580Z,7.75
2023-03-29T05:57:12.422Z,8.98
2023-03-29T05:59:43.145Z,9.45
2023-03-29T06:02:16.200Z,11.23
2023-03-29T06:04:51.960Z,10.43
2023-03-29T06:07:30.089Z,9.95
2023-03-29T06:10:29.059Z,10.75
2023-03-29T06:13:12.189Z,5.90
2023-03-29T06:15:42.016Z,12.18
2023-03-29T06:18:12.718Z,8.70
2023-03-29T06:20:42.852Z,9.48
2023-03-29T06:23:19.930Z,10.30
2023-03-29T06:25:51.581Z,13.40
2023-03-29T06:28:22.293Z,13.68
2023-03-29T06:30:54.333Z,17.70
2023-03-29T06:33:25.567Z,24.65
2023-03-29T06:36:05.239Z,15.18
2023-03-29T06:38:38.494Z,10.65
2023-03-29T06:41:17.969Z,7.35
2023-03-29T06:44:05.258Z,12.02
2023-03-29T06:46:39.517Z,24.15
2023-03-29T06:49:10.666Z,16.52
2023-03-29T06:51:58.245Z,24.75
2023-03-29T06:54:31.382Z,22.38
2023-03-29T06:57:06.030Z,11.50
2023-03-29T06:59:37.897Z,9.18
2023-03-29T07:02:29.482Z,7.53
2023-03-29T07:05:07.220Z,72.50
2023-03-29T07:07:54.178Z,46.53
2023-03-29T07:10:55.462Z,65.68
2023-03-29T07:13:44.178Z,8.60
2023-03-29T07:16:19.586Z,9.30
2023-03-29T07:19:15.441Z,7.32
2023-03-29T07:21:54.564Z,6.45
2023-03-29T07:24:28.742Z,13.10
2023-03-29T07:27:04.482Z,8.93
2023-03-29T07:29:36.336Z,5.45
2023-03-29T07:32:06.745Z,5.30
2023-03-29T07:34:55.953Z,8.85
2023-03-29T07:37:35.420Z,4.25
2023-03-29T07:40:09.509Z,4.63
2023-03-29T07:43:00.281Z,3.58
2023-03-29T07:45:34.096Z,4.45
2023-03-29T07:48:09.062Z,3.33
2023-03-29T07:50:52.321Z,3.47
2023-03-29T07:53:27.288Z,4.03
2023-03-29T07:55:59.594Z,2.28
2023-03-29T07:58:48.332Z,1.95
2023-03-29T08:01:20.031Z,2.95
2023-03-29T08:04:19.083Z,2.47
2023-03-29T08:07:07.566Z,3.13
2023-03-29T08:09:55.508Z,1.73
2023-03-29T08:15:08.820Z,1.80
2023-03-29T08:17:41.004Z,2.33
2023-03-29T08:20:12.601Z,1.80
2023-03-29T08:22:45.540Z,2.40
2023-03-29T08:25:30.031Z,1.67
2023-03-29T08:28:00.840Z,2.13
2023-03-29T08:30:59.667Z,3.13
2023-03-29T08:33:29.760Z,1.73
2023-03-29T08:36:19.916Z,1.40
2023-03-29T08:38:50.751Z,1.52
2023-03-29T08:41:28.442Z,2.28
2023-03-29T08:44:07.360Z,1.17
2023-03-29T08:46:47.881Z,1.70
2023-03-29T08:49:30.543Z,1.73
2023-03-29T08:52:03.648Z,3.25
2023-03-29T08:54:37.020Z,0.88
2023-03-29T08:57:18.218Z,1.57
2023-03-29T08:59:54.121Z,2.22
2023-03-29T09:02:29.307Z,1.38
2023-03-29T09:05:06.854Z,0.82
2023-03-29T09:07:45.698Z,1.60
2023-03-29T09:10:19.230Z,1.10
2023-03-29T09:13:03.579Z,2.47
2023-03-29T09:15:37.662Z,0.77
2023-03-29T09:18:24.705Z,2.45
2023-03-29T09:20:57.153Z,2.40
2023-03-29T09:23:36.273Z,2.20
2023-03-29T09:26:20.449Z,1.35
2023-03-29T09:29:23.884Z,1.83
2023-03-29T09:31:54.264Z,1.42
2023-03-29T09:34:31.865Z,0.93
2023-03-29T09:37:11.000Z,1.23
2023-03-29T09:39:43.182Z,1.90
2023-03-29T09:42:19.930Z,1.50
2023-03-29T09:44:51.814Z,0.80
2023-03-29T09:47:28.137Z,1.45
2023-03-29T09:50:04.005Z,0.95
2023-03-29T09:52:34.733Z,1.30
2023-03-29T09:55:17.471Z,2.05
2023-03-29T09:57:56.331Z,1.40
2023-03-29T10:00:27.240Z,1.67
2023-03-29T10:03:00.528Z,1.50
2023-03-29T10:05:53.421Z,1.17
2023-03-29T10:08:27.213Z,2.20
2023-03-29T10:11:00.549Z,0.77
2023-03-29T10:13:31.657Z,1.65
2023-03-29T10:16:05.470Z,0.80
2023-03-29T10:18:35.818Z,1.38
2023-03-29T10:21:08.511Z,1.80
2023-03-29T10:23:39.832Z,1.30
2023-03-29T10:26:11.853Z,1.15
2023-03-29T10:28:41.952Z,1.75
2023-03-29T10:31:19.643Z,1.15
2023-03-29T10:33:54.138Z,1.52
2023-03-29T10:36:28.580Z,2.17
2023-03-29T10:39:00.899Z,1.75
2023-03-29T10:41:32.319Z,1.63
2023-03-29T10:44:02.716Z,1.42
2023-03-29T10:46:33.677Z,1.23
2023-03-29T10:49:06.270Z,5.20
2023-03-29T10:51:38.743Z,2.75
2023-03-29T10:54:10.027Z,2.13
2023-03-29T10:56:42.626Z,1.90
2023-03-29T10:59:27.675Z,2.05
2023-03-29T11:02:04.831Z,2.22
2023-03-29T11:04:39.901Z,2.30
2023-03-29T11:07:22.792Z,3.38
2023-03-29T11:09:56.391Z,2.10
2023-03-29T11:12:28.248Z,2.28
2023-03-29T11:15:04.848Z,2.33
2023-03-29T11:17:45.927Z,3.42
2023-03-29T11:20:30.203Z,2.30
2023-03-29T11:23:07.409Z,3.53
2023-03-29T11:25:47.526Z,4.70
2023-03-29T11:28:20.404Z,2.88
2023-03-29T11:30:52.165Z,2.97
2023-03-29T11:33:30.956Z,2.65
2023-03-29T11:36:04.814Z,3.90
2023-03-29T11:38:39.280Z,3.30
2023-03-29T11:41:13.777Z,2.67
2023-03-29T11:43:45.920Z,7.90
2023-03-29T11:46:18.510Z,2.58
2023-03-29T11:48:52.328Z,3.08
2023-03-29T11:51:26.068Z,3.15
2023-03-29T11:54:03.472Z,3.28
2023-03-29T11:56:36.395Z,3.40
2023-03-29T11:59:09.995Z,2.63
2023-03-29T12:01:42.532Z,2.55
2023-03-29T12:04:16.084Z,2.58
2023-03-29T12:06:48.718Z,3.10
2023-03-29T12:09:26.346Z,3.20
2023-03-29T12:11:59.937Z,2.40
2023-03-29T12:14:32.113Z,2.95
2023-03-29T12:17:04.595Z,2.60
2023-03-29T12:19:42.672Z,3.83
2023-03-29T12:22:13.294Z,2.88
2023-03-29T12:24:50.120Z,3.17
2023-03-29T12:27:24.205Z,3.58
2023-03-29T12:30:11.212Z,4.50
2023-03-29T12:32:47.163Z,3.47
2023-03-29T12:35:42.896Z,3.33
2023-03-29T12:38:32.345Z,2.97
2023-03-29T12:41:23.817Z,2.28
2023-03-29T12:44:04.403Z,3.40
2023-03-29T12:46:50.081Z,2.63
2023-03-29T12:49:27.091Z,2.85
2023-03-29T12:51:58.016Z,2.42
2023-03-29T12:54:29.051Z,3.20
2023-03-29T12:57:03.074Z,4.15
2023-03-29T12:59:40.852Z,2.38
2023-03-29T13:02:25.403Z,2.10
2023-03-29T13:04:56.600Z,2.55
2023-03-29T13:07:32.104Z,2.38
2023-03-29T13:10:03.541Z,2.38
2023-03-29T13:12:39.399Z,2.20
2023-03-29T13:15:10.872Z,2.70
2023-03-29T13:17:46.920Z,6.63
2023-03-29T13:20:31.428Z,2.38
2023-03-29T13:23:06.229Z,2.50
2023-03-29T13:25:42.520Z,2.50
2023-03-29T13:28:18.615Z,2.47
2023-03-29T13:30:50.938Z,2.00
2023-03-29T13:33:27.223Z,3.53
2023-03-29T13:36:01.069Z,3.03
2023-03-29T13:38:32.223Z,2.63
2023-03-29T13:41:04.007Z,3.13
2023-03-29T13:43:52.582Z,2.15
2023-03-29T13:46:24.236Z,2.50
2023-03-29T13:49:04.542Z,1.98
2023-03-29T13:51:40.226Z,2.08
2023-03-29T13:54:16.446Z,3.38
2023-03-29T13:56:52.568Z,2.85
2023-03-29T13:59:29.769Z,4.22
2023-03-29T14:02:00.773Z,2.88
2023-03-29T14:04:32.363Z,3.67
2023-03-29T14:07:02.658Z,3.90
2023-03-29T14:09:34.561Z,4.18
2023-03-29T14:12:04.729Z,2.67
2023-03-29T14:14:42.640Z,2.17
2023-03-29T14:17:22.790Z,3.38
2023-03-29T14:19:53.256Z,4.57
2023-03-29T14:22:23.828Z,4.28
2023-03-29T14:24:57.036Z,2.35
2023-03-29T14:27:27.412Z,3.58
2023-03-29T14:30:00.034Z,3.50
2023-03-29T14:32:33.951Z,2.25
2023-03-29T14:35:03.790Z,3.25
2023-03-29T14:37:33.940Z,3.80
2023-03-29T14:40:09.010Z,2.72
2023-03-29T14:42:41.377Z,1.83
2023-03-29T14:45:17.193Z,2.22
2023-03-29T14:47:47.849Z,2.92
2023-03-29T14:50:21.733Z,2.85
2023-03-29T14:52:53.636Z,5.20
2023-03-29T14:55:23.999Z,2.97
2023-03-29T14:57:54.239Z,2.38
2023-03-29T15:00:29.102Z,3.50
2023-03-29T15:03:00.313Z,5.13
2023-03-29T15:05:38.675Z,2.30
2023-03-29T15:08:12.093Z,4.70
2023-03-29T15:10:44.841Z,2.97
2023-03-29T15:13:19.497Z,3.50
2023-03-29T15:15:54.051Z,3.35
2023-03-29T15:18:26.549Z,2.15
2023-03-29T15:20:57.206Z,10.65
2023-03-29T15:23:27.813Z,6.47
2023-03-29T15:25:58.922Z,8.38
2023-03-29T15:28:31.305Z,6.40
2023-03-29T15:31:08.077Z,6.55
2023-03-29T15:33:39.349Z,1.55
2023-03-29T15:36:10.255Z,9.05
2023-03-29T15:38:44.485Z,10.95
2023-03-29T15:41:15.563Z,4.80
2023-03-29T15:43:45.417Z,4.22
2023-03-29T15:46:17.913Z,1.83
2023-03-29T15:48:47.699Z,4.20
2023-03-29T15:51:17.442Z,3.97
2023-03-29T15:53:47.205Z,3.17
2023-03-29T15:56:19.147Z,2.35
2023-03-29T15:58:49.925Z,3.10
2023-03-29T16:01:33.682Z,4.18
2023-03-29T16:04:03.517Z,3.28
2023-03-29T16:06:33.562Z,8.77
2023-03-29T16:09:04.323Z,3.90
2023-03-29T16:11:34.118Z,3.33
2023-03-29T16:14:04.158Z,4.03
2023-03-29T16:16:36.606Z,2.58
2023-03-29T16:19:06.682Z,3.33
2023-03-29T16:21:37.027Z,5.10
2023-03-29T16:24:07.674Z,2.75
2023-03-29T16:26:39.383Z,2.45
2023-03-29T16:29:09.158Z,3.33
2023-03-29T16:31:41.938Z,6.30
2023-03-29T16:34:12.872Z,5.15
2023-03-29T16:36:43.795Z,4.45
2023-03-29T16:39:13.872Z,3.90
2023-03-29T16:41:45.395Z,3.03
2023-03-29T16:44:16.569Z,4.68
2023-03-29T16:46:49.394Z,2.33
2023-03-29T16:49:19.806Z,2.50
2023-03-29T16:51:49.884Z,1.98
2023-03-29T16:54:20.568Z,2.33
2023-03-29T16:56:50.954Z,2.75
2023-03-29T16:59:20.769Z,2.92
2023-03-29T17:01:53.222Z,4.13
2023-03-29T17:04:23.113Z,2.25
2023-03-29T17:06:53.663Z,2.80
2023-03-29T17:09:23.381Z,3.15
2023-03-29T17:11:53.057Z,6.43
2023-03-29T17:14:22.797Z,8.50
2023-03-29T17:16:55.223Z,13.02
2023-03-29T17:19:25.110Z,6.03
2023-03-29T17:21:54.877Z,4.38
2023-03-29T17:24:24.639Z,2.08
2023-03-29T17:26:54.395Z,2.35
2023-03-29T17:29:24.100Z,2.63
2023-03-29T17:31:57.580Z,1.73
2023-03-29T17:34:29.146Z,3.20
2023-03-29T17:36:59.364Z,6.32
2023-03-29T17:39:29.096Z,3.72
2023-03-29T17:41:58.862Z,1.90
2023-03-29T17:44:28.620Z,2.97
2023-03-29T17:47:01.142Z,1.80
2023-03-29T17:49:32.036Z,2.38
2023-03-29T17:52:01.792Z,2.42
2023-03-29T17:54:31.670Z,4.28
2023-03-29T17:57:01.504Z,4.32
2023-03-29T17:59:31.440Z,2.17
2023-03-29T18:02:05.707Z,2.67
2023-03-29T18:04:35.649Z,3.05
2023-03-29T18:07:05.439Z,2.88
2023-03-29T18:09:35.399Z,1.85
2023-03-29T18:12:05.154Z,2.45
2023-03-29T18:14:34.978Z,2.63
2023-03-29T18:17:07.446Z,1.13
2023-03-29T18:19:37.380Z,2.47
2023-03-29T18:22:07.173Z,3.42
2023-03-29T18:24:37.165Z,3.75
2023-03-29T18:27:07.048Z,3.60
2023-03-29T18:29:36.965Z,3.50
2023-03-29T18:32:09.521Z,2.85
2023-03-29T18:34:39.498Z,1.70
2023-03-29T18:37:14.702Z,1.85
2023-03-29T18:39:45.069Z,1.75
2023-03-29T18:42:15.038Z,1.40
2023-03-29T18:44:44.829Z,2.17
2023-03-29T18:47:18.434Z,2.17
2023-03-29T18:49:48.256Z,1.52
2023-03-29T18:52:18.126Z,2.42
2023-03-29T18:54:47.855Z,1.65
2023-03-29T18:57:17.709Z,1.55
2023-03-29T18:59:47.510Z,1.00
2023-03-29T19:02:19.935Z,1.75
2023-03-29T19:04:49.915Z,1.35
2023-03-29T19:07:21.281Z,2.38
2023-03-29T19:09:51.172Z,2.13
2023-03-29T19:12:20.912Z,2.70
2023-03-29T19:14:50.814Z,1.65
2023-03-29T19:17:23.304Z,0.93
2023-03-29T19:19:53.050Z,2.63
2023-03-29T19:22:22.743Z,1.73
2023-03-29T19:24:52.541Z,6.72
2023-03-29T19:27:22.298Z,5.68
2023-03-29T19:29:52.236Z,1.15
2023-03-29T19:32:24.652Z,1.60
2023-03-29T19:34:54.363Z,1.40
2023-03-29T19:37:24.425Z,4.97
2023-03-29T19:39:55.768Z,2.00
2023-03-29T19:42:25.631Z,4.60
2023-03-29T19:44:55.332Z,1.75
2023-03-29T19:47:28.361Z,2.08
2023-03-29T19:49:59.719Z,3.90
2023-03-29T19:52:29.606Z,1.95
2023-03-29T19:54:59.632Z,2.28
2023-03-29T19:57:30.979Z,2.20
2023-03-29T20:00:01.666Z,3.13
2023-03-29T20:02:34.139Z,2.67
2023-03-29T20:05:04.723Z,2.53
2023-03-29T20:07:34.562Z,1.50
2023-03-29T20:10:04.300Z,3.08
2023-03-29T20:12:34.038Z,4.82
2023-03-29T20:15:03.821Z,7.15
2023-03-29T20:17:36.268Z,3.05
2023-03-29T20:20:09.281Z,2.55
2023-03-29T20:22:42.359Z,2.00
2023-03-29T20:25:12.434Z,3.60
2023-03-29T20:27:42.951Z,3.83
2023-03-29T20:30:14.576Z,2.38
2023-03-29T20:32:47.068Z,5.88
2023-03-29T20:35:17.139Z,6.32
2023-03-29T20:37:47.385Z,7.13
2023-03-29T20:40:17.535Z,4.43
2023-03-29T20:42:47.284Z,9.05
2023-03-29T20:45:21.263Z,10.23
2023-03-29T20:47:58.010Z,10.07
2023-03-29T20:50:29.151Z,7.93
2023-03-29T20:53:03.915Z,5.20
2023-03-29T20:55:33.722Z,10.85
2023-03-29T20:58:03.993Z,7.25
2023-03-29T21:00:35.633Z,13.02
2023-03-29T21:03:08.826Z,4.15
2023-03-29T21:05:39.110Z,8.15
2023-03-29T21:08:09.089Z,9.82
2023-03-29T21:10:38.958Z,7.50
2023-03-29T21:13:08.683Z,3.38
2023-03-29T21:15:38.517Z,5.68
2023-03-29T21:18:11.116Z,7.68
2023-03-29T21:20:41.028Z,4.88
2023-03-29T21:23:11.033Z,5.78
2023-03-29T21:25:40.916Z,4.15
2023-03-29T21:28:10.679Z,4.15
2023-03-29T21:30:40.442Z,4.45
2023-03-29T21:33:12.745Z,4.22
2023-03-29T21:35:42.518Z,4.25
2023-03-29T21:38:12.325Z,3.80
2023-03-29T21:40:44.918Z,4.90
2023-03-29T21:43:14.684Z,3.13
2023-03-29T21:45:44.352Z,4.95
2023-03-29T21:48:16.672Z,3.30
2023-03-29T21:50:46.512Z,2.40
2023-03-29T21:53:16.285Z,2.78
2023-03-29T21:55:46.006Z,3.13
2023-03-29T21:58:16.256Z,2.25
2023-03-29T22:00:46.222Z,5.00
2023-03-29T22:03:18.806Z,3.10
2023-03-29T22:05:57.901Z,4.05
2023-03-29T22:08:27.935Z,3.50
2023-03-29T22:11:01.217Z,4.03
2023-03-29T22:13:31.412Z,3.00
2023-03-29T22:16:01.548Z,2.97
2023-03-29T22:18:42.619Z,3.75
2023-03-29T22:21:13.942Z,3.10
2023-03-29T22:23:43.792Z,3.10
2023-03-29T22:26:14.271Z,3.28
2023-03-29T22:28:44.177Z,3.28
2023-03-29T22:31:14.968Z,2.03
2023-03-29T22:33:47.359Z,3.03
2023-03-29T22:36:17.855Z,2.92
2023-03-29T22:38:47.810Z,2.17
2023-03-29T22:41:17.839Z,3.22
2023-03-29T22:43:48.205Z,2.67
2023-03-29T22:46:19.207Z,3.13
2023-03-29T22:48:52.594Z,2.75
2023-03-29T22:51:22.887Z,3.65
2023-03-29T22:53:52.701Z,2.63
2023-03-29T22:56:23.343Z,3.53
2023-03-29T22:58:53.103Z,4.65
2023-03-29T23:01:22.819Z,2.97
2023-03-29T23:03:55.221Z,3.13
2023-03-29T23:06:24.988Z,3.40
2023-03-29T23:08:54.695Z,3.47
2023-03-29T23:11:24.369Z,2.83
2023-03-29T23:13:54.206Z,2.35
2023-03-29T23:16:24.184Z,2.25
2023-03-29T23:18:56.779Z,3.70
2023-03-29T23:21:26.494Z,2.60
2023-03-29T23:23:56.217Z,5.32
2023-03-29T23:26:27.993Z,4.72
2023-03-29T23:28:57.728Z,3.60
2023-03-29T23:31:27.481Z,3.67
2023-03-29T23:34:00.036Z,3.92
2023-03-29T23:36:31.637Z,4.68
2023-03-29T23:39:02.212Z,4.72
2023-03-29T23:41:32.108Z,4.03
2023-03-29T23:44:03.838Z,2.65
2023-03-29T23:46:33.629Z,4.88
2023-03-29T23:49:05.980Z,4.18
2023-03-29T23:51:36.940Z,5.60
2023-03-29T23:54:07.402Z,4.50
2023-03-29T23:56:37.474Z,4.15
2023-03-29T23:59:07.461Z,4.05
